Hlavní strana
METAR-TAF:

METAR-TAF

Letiště :

Jendouba, Tunisko

zeměpisná šířka: 36-29N, zeměpisná délka: 008-48E, výška: 143 m

Aktuální stav počasí

Zpráva byla vytvořena před 1 hodinou a 2 minutami, v 04:00 UTC
vítr z různých směrů 2 kt
Teplota 5°C
Vlhkost vzduchu 93%
Tlak 1025 hPa

METAR: DTTN 070400Z AUTO VRB02KT NCD 05/04 Q1025

Čas: 06:02 (05:02 UTC)


TAF: chybějící

Stav a předpovědi počasí z více než 4 000 letišť (zprávy METAR a TAF).

Červené a žluté tečky na mapě představují dostupné meteorologické stanice.

Když kurzor umístíte na tečku, zobrazí se název stanice.

Pak kliknutím zobrazíte stav a předpověď počasí.

Chcete-li změnit mapu, kliknutím na zelené tlačítko se znaménkem +mapu přiblížíte, kliknutím na zelené tlačítko se znaménkem – mapu oddálíte a kliknutím na zelené šipky přejdete na sousední mapy.


METAR-TAF: